createdAt,value
2022-10-25T00:01:15.049Z,100941.75
2022-10-25T00:03:44.361Z,100947.09
2022-10-25T00:06:12.435Z,100946.94
2022-10-25T00:08:40.331Z,100953.81
2022-10-25T00:11:08.717Z,100951.25
2022-10-25T00:13:36.618Z,100934.78
2022-10-25T00:16:04.759Z,100951.06
2022-10-25T00:18:32.611Z,100955.56
2022-10-25T00:21:07.032Z,100960.97
2022-10-25T00:23:34.903Z,100959.38
2022-10-25T00:26:03.147Z,100957.53
2022-10-25T00:28:31.021Z,100962.81
2022-10-25T00:31:02.232Z,100954.84
2022-10-25T00:33:31.681Z,100961.84
2022-10-25T00:36:06.985Z,100952.00
2022-10-25T00:38:35.022Z,100952.66
2022-10-25T00:41:03.015Z,100949.16
2022-10-25T00:43:35.236Z,100960.69
2022-10-25T00:46:03.338Z,100955.34
2022-10-25T00:48:31.193Z,100960.16
2022-10-25T00:50:59.049Z,100961.38
2022-10-25T00:53:29.392Z,100963.44
2022-10-25T00:55:59.955Z,100962.88
2022-10-25T00:58:27.817Z,100965.53
2022-10-25T01:00:56.619Z,100963.63
2022-10-25T01:03:24.591Z,100964.41
2022-10-25T01:05:52.688Z,100968.03
2022-10-25T01:08:20.583Z,100959.41
2022-10-25T01:10:49.961Z,100964.94
2022-10-25T01:13:17.859Z,100968.94
2022-10-25T01:15:50.616Z,100976.50
2022-10-25T01:18:19.181Z,100967.84
2022-10-25T01:21:25.165Z,100970.81
2022-10-25T01:24:18.964Z,100970.16
2022-10-25T01:26:57.362Z,100971.94
2022-10-25T01:30:00.502Z,100976.72
2022-10-25T01:32:31.131Z,100966.38
2022-10-25T01:35:01.736Z,100971.72
2022-10-25T01:37:31.653Z,100975.53
2022-10-25T01:40:02.627Z,100964.22
2022-10-25T01:42:33.443Z,100962.69
2022-10-25T01:45:11.781Z,100966.59
2022-10-25T01:47:42.904Z,100969.53
2022-10-25T01:50:13.225Z,100970.75
2022-10-25T01:52:41.156Z,100972.75
2022-10-25T01:55:10.397Z,100971.09
2022-10-25T01:57:46.041Z,100973.94
2022-10-25T02:00:15.538Z,100973.28
2022-10-25T02:02:57.644Z,100966.38
2022-10-25T02:05:28.016Z,100980.53
2022-10-25T02:08:01.412Z,100973.59
2022-10-25T02:10:31.335Z,100978.88
2022-10-25T02:13:02.858Z,100980.78
2022-10-25T02:15:33.468Z,100976.38
2022-10-25T02:18:04.192Z,100975.56
2022-10-25T02:20:33.990Z,100977.47
2022-10-25T02:23:02.901Z,100980.28
2022-10-25T02:25:30.806Z,100978.66
2022-10-25T02:27:58.701Z,100981.44
2022-10-25T02:30:26.544Z,100973.66
2022-10-25T02:32:54.409Z,100982.66
2022-10-25T02:35:23.638Z,100975.56
2022-10-25T02:37:51.538Z,100974.69
2022-10-25T02:40:19.861Z,100966.75
2022-10-25T02:42:47.756Z,100966.00
2022-10-25T02:45:15.772Z,100982.19
2022-10-25T02:47:43.706Z,100977.72
2022-10-25T02:50:11.707Z,100976.94
2022-10-25T02:52:40.963Z,100977.03
2022-10-25T02:55:09.559Z,100971.75
2022-10-25T02:57:38.000Z,100974.53
2022-10-25T03:00:06.868Z,100971.94
2022-10-25T03:02:34.805Z,100972.97
2022-10-25T03:05:02.695Z,100972.00
2022-10-25T03:07:30.570Z,100968.56
2022-10-25T03:09:59.758Z,100977.59
2022-10-25T03:12:27.680Z,100968.81
2022-10-25T03:14:55.971Z,100975.13
2022-10-25T03:17:23.803Z,100972.50
2022-10-25T03:19:51.705Z,100962.88
2022-10-25T03:22:19.574Z,100969.16
2022-10-25T03:24:47.392Z,100978.97
2022-10-25T03:27:17.846Z,100971.16
2022-10-25T03:29:45.685Z,100979.22
2022-10-25T03:32:13.542Z,100980.25
2022-10-25T03:34:43.459Z,100977.75
2022-10-25T03:37:11.291Z,100986.72
2022-10-25T03:39:39.162Z,100985.84
2022-10-25T03:42:07.225Z,100976.13
2022-10-25T03:44:36.478Z,100980.59
2022-10-25T03:47:04.363Z,100977.13
2022-10-25T03:49:32.288Z,100979.81
2022-10-25T03:52:02.753Z,100978.06
2022-10-25T03:54:32.794Z,100979.97
2022-10-25T03:57:00.733Z,100980.06
2022-10-25T03:59:28.749Z,100979.28
2022-10-25T04:01:58.054Z,100969.63
2022-10-25T04:04:26.008Z,100982.09
2022-10-25T04:06:53.877Z,100981.28
2022-10-25T04:09:21.781Z,100985.75
2022-10-25T04:11:49.648Z,100979.53
2022-10-25T04:14:17.485Z,100982.28
2022-10-25T04:16:45.371Z,100979.63
2022-10-25T04:19:14.582Z,100975.13
2022-10-25T04:21:42.448Z,100975.06
2022-10-25T04:24:10.369Z,100977.72
2022-10-25T04:26:38.494Z,100976.84
2022-10-25T04:29:06.432Z,100985.75
2022-10-25T04:31:34.308Z,100984.00
2022-10-25T04:34:02.173Z,100984.78
2022-10-25T04:36:31.634Z,100983.94
2022-10-25T04:38:59.524Z,100979.44
2022-10-25T04:41:27.424Z,100989.19
2022-10-25T04:43:55.260Z,100991.78
2022-10-25T04:46:23.161Z,100992.66
2022-10-25T04:48:50.999Z,100990.91
2022-10-25T04:51:18.830Z,100989.03
2022-10-25T04:53:48.091Z,100986.03
2022-10-25T04:56:16.013Z,100985.94
2022-10-25T04:58:43.887Z,100984.13
2022-10-25T05:01:13.205Z,100987.59
2022-10-25T05:03:41.140Z,100985.78
2022-10-25T05:06:09.844Z,100982.34
2022-10-25T05:08:37.812Z,100990.25
2022-10-25T05:11:07.226Z,100987.69
2022-10-25T05:13:35.370Z,100988.50
2022-10-25T05:16:03.314Z,100984.91
2022-10-25T05:18:31.516Z,100982.16
2022-10-25T05:21:00.715Z,100986.47
2022-10-25T05:23:28.821Z,100981.91
2022-10-25T05:26:03.606Z,100975.53
2022-10-25T05:28:32.849Z,100975.44
2022-10-25T05:31:04.173Z,100977.09
2022-10-25T05:33:32.169Z,100967.16
2022-10-25T05:36:00.365Z,100961.75
2022-10-25T05:38:28.260Z,100964.44
2022-10-25T05:40:56.345Z,100956.66
2022-10-25T05:43:24.314Z,100980.63
2022-10-25T05:45:53.684Z,100969.94
2022-10-25T05:48:21.529Z,100969.16
2022-10-25T05:50:53.438Z,100982.63
2022-10-25T05:53:27.167Z,100980.00
2022-10-25T05:55:55.016Z,100976.41
2022-10-25T05:58:23.304Z,100978.19
2022-10-25T06:00:51.195Z,100968.47
2022-10-25T06:03:20.569Z,100974.66
2022-10-25T06:05:48.459Z,100966.72
2022-10-25T06:08:16.327Z,100965.81
2022-10-25T06:10:44.312Z,100978.28
2022-10-25T06:13:12.184Z,100972.06
2022-10-25T06:15:40.036Z,100974.66
2022-10-25T06:18:08.066Z,100970.19
2022-10-25T06:20:37.323Z,100967.34
2022-10-25T06:23:08.008Z,100965.53
2022-10-25T06:25:38.422Z,100971.41
2022-10-25T06:28:06.503Z,100972.97
2022-10-25T06:30:34.418Z,100969.16
2022-10-25T06:33:02.269Z,100972.47
2022-10-25T06:35:30.472Z,100968.56
2022-10-25T06:38:02.000Z,100961.06
2022-10-25T06:40:29.860Z,100968.56
2022-10-25T06:42:57.744Z,100971.78
2022-10-25T06:45:25.749Z,100966.94
2022-10-25T06:47:53.617Z,100955.91
2022-10-25T06:50:21.494Z,100954.69
2022-10-25T06:52:49.589Z,100963.41
2022-10-25T06:55:18.976Z,100961.69
2022-10-25T06:57:46.817Z,100957.53
2022-10-25T07:00:15.290Z,100958.75
2022-10-25T07:02:43.185Z,100960.94
2022-10-25T07:05:11.161Z,100944.06
2022-10-25T07:07:39.087Z,100963.22
2022-10-25T07:10:07.350Z,100963.31
2022-10-25T07:12:39.044Z,100964.09
2022-10-25T07:15:08.026Z,100976.38
2022-10-25T07:17:35.927Z,100975.34
2022-10-25T07:20:03.805Z,100961.88
2022-10-25T07:22:31.691Z,100973.34
2022-10-25T07:24:59.616Z,100977.66
2022-10-25T07:27:27.512Z,100981.09
2022-10-25T07:29:56.778Z,100979.28
2022-10-25T07:32:24.810Z,100985.25
2022-10-25T07:34:52.922Z,100986.81
2022-10-25T07:37:20.932Z,100990.25
2022-10-25T07:39:49.201Z,100982.06
2022-10-25T07:42:17.267Z,100979.13
2022-10-25T07:47:15.774Z,100989.19
2022-10-25T07:49:43.649Z,100987.03
2022-10-25T07:52:11.732Z,100992.88
2022-10-25T07:54:39.656Z,100989.75
2022-10-25T07:57:07.642Z,100992.84
2022-10-25T07:59:35.574Z,101003.19
2022-10-25T08:02:03.530Z,100990.47
2022-10-25T08:04:33.259Z,100987.44
2022-10-25T08:07:01.835Z,100984.84
2022-10-25T08:09:44.467Z,100995.78
2022-10-25T08:12:12.340Z,100983.91
2022-10-25T08:14:42.302Z,100986.25
2022-10-25T08:17:11.325Z,100994.97
2022-10-25T08:19:40.688Z,100995.75
2022-10-25T08:22:08.708Z,100993.84
2022-10-25T08:24:38.763Z,100992.88
2022-10-25T08:27:06.832Z,100999.09
2022-10-25T08:29:34.812Z,100993.72
2022-10-25T08:32:02.706Z,100993.63
2022-10-25T08:34:33.094Z,100996.41
2022-10-25T08:37:02.976Z,101001.78
2022-10-25T08:39:30.930Z,100995.25
2022-10-25T08:41:59.617Z,100996.03
2022-10-25T08:44:32.639Z,101003.44
2022-10-25T08:47:01.827Z,101006.00
2022-10-25T08:49:33.333Z,100998.44
2022-10-25T08:52:02.730Z,100999.09
2022-10-25T08:54:32.084Z,100990.13
2022-10-25T08:57:15.854Z,100994.44
2022-10-25T08:59:45.287Z,101000.28
2022-10-25T09:02:18.871Z,100992.88
2022-10-25T09:04:47.179Z,100997.03
2022-10-25T09:07:32.229Z,100995.22
2022-10-25T09:10:02.354Z,100997.66
2022-10-25T09:12:32.576Z,100995.56
2022-10-25T09:15:03.056Z,100986.38
2022-10-25T09:17:34.421Z,100990.56
2022-10-25T09:20:05.548Z,100984.06
2022-10-25T09:22:39.104Z,100985.59
2022-10-25T09:25:09.719Z,100984.44
2022-10-25T09:27:38.720Z,100983.09
2022-10-25T09:30:08.074Z,100978.41
2022-10-25T09:32:39.577Z,100977.34
2022-10-25T09:35:08.665Z,100973.50
2022-10-25T09:37:42.202Z,100967.53
2022-10-25T09:40:12.891Z,100983.03
2022-10-25T09:42:42.476Z,100977.81
2022-10-25T09:45:18.581Z,100987.97
2022-10-25T09:47:49.679Z,100985.22
2022-10-25T09:50:21.229Z,100984.44
2022-10-25T09:52:57.024Z,100982.94
2022-10-25T09:55:33.151Z,100985.50
2022-10-25T09:58:01.438Z,100987.47
2022-10-25T10:00:29.365Z,100983.38
2022-10-25T10:02:57.483Z,100973.16
2022-10-25T10:05:25.507Z,100968.66
2022-10-25T10:07:54.783Z,100962.06
2022-10-25T10:10:25.341Z,100955.75
2022-10-25T10:12:54.853Z,100963.25
2022-10-25T10:15:24.166Z,100960.66
2022-10-25T10:18:22.426Z,100949.13
2022-10-25T10:21:01.284Z,100946.94
2022-10-25T10:23:32.005Z,100940.72
2022-10-25T10:26:02.033Z,100939.19
2022-10-25T10:28:29.904Z,100932.66
2022-10-25T10:30:58.971Z,100933.25
2022-10-25T10:33:27.701Z,100940.16
2022-10-25T10:35:56.216Z,100947.69
2022-10-25T10:38:25.833Z,100952.69
2022-10-25T10:40:56.557Z,100952.09
2022-10-25T10:43:25.704Z,100948.53
2022-10-25T10:45:53.662Z,100950.47
2022-10-25T10:48:22.191Z,100946.47
2022-10-25T10:50:50.539Z,100958.91
2022-10-25T10:53:21.619Z,100954.47
2022-10-25T10:55:49.863Z,100956.16
2022-10-25T10:58:20.161Z,100944.59
2022-10-25T11:00:51.242Z,100949.97
2022-10-25T11:03:59.327Z,100949.06
2022-10-25T11:06:29.054Z,100947.47
2022-10-25T11:09:13.314Z,100949.47
2022-10-25T11:11:41.305Z,100942.53
2022-10-25T11:14:12.293Z,100934.63
2022-10-25T11:16:51.466Z,100929.28
2022-10-25T11:19:41.437Z,100929.84
2022-10-25T11:22:33.480Z,100922.16
2022-10-25T11:25:11.182Z,100921.19
2022-10-25T11:27:46.805Z,100915.22
2022-10-25T11:30:17.128Z,100925.66
2022-10-25T11:33:15.570Z,100917.50
2022-10-25T11:35:50.417Z,100909.81
2022-10-25T11:38:21.482Z,100907.53
2022-10-25T11:40:56.209Z,100908.50
2022-10-25T11:43:34.566Z,100898.63
2022-10-25T11:46:05.070Z,100893.91
2022-10-25T11:48:49.577Z,100878.44
2022-10-25T11:51:22.364Z,100890.94
2022-10-25T11:54:02.312Z,100885.81
2022-10-25T11:56:33.872Z,100868.16
2022-10-25T11:59:06.545Z,100868.31
2022-10-25T12:01:42.253Z,100873.47
2022-10-25T12:04:32.775Z,100880.19
2022-10-25T12:07:05.624Z,100872.63
2022-10-25T12:09:37.461Z,100861.19
2022-10-25T12:12:06.863Z,100856.41
2022-10-25T12:14:37.153Z,100851.22
2022-10-25T12:17:08.271Z,100856.34
2022-10-25T12:19:40.702Z,100850.03
2022-10-25T12:22:09.398Z,100837.00
2022-10-25T12:24:39.031Z,100838.28
2022-10-25T12:27:06.953Z,100837.16
2022-10-25T12:29:36.465Z,100837.47
2022-10-25T12:32:07.335Z,100836.53
2022-10-25T12:34:39.736Z,100835.00
2022-10-25T12:37:11.356Z,100830.25
2022-10-25T12:39:40.758Z,100819.97
2022-10-25T12:42:10.733Z,100817.84
2022-10-25T12:44:57.639Z,100812.84
2022-10-25T12:47:33.577Z,100813.13
2022-10-25T12:50:21.227Z,100801.69
2022-10-25T12:53:05.729Z,100796.81
2022-10-25T12:55:38.895Z,100788.97
2022-10-25T12:58:21.130Z,100780.13
2022-10-25T13:01:05.508Z,100777.72
2022-10-25T13:04:10.270Z,100767.13
2022-10-25T13:06:38.279Z,100760.25
2022-10-25T13:09:07.911Z,100764.25
2022-10-25T13:11:37.633Z,100770.56
2022-10-25T13:14:05.615Z,100766.59
2022-10-25T13:16:34.275Z,100767.59
2022-10-25T13:22:39.461Z,100761.47
2022-10-25T13:25:17.463Z,100759.00
2022-10-25T13:28:20.763Z,100754.69
2022-10-25T13:30:48.658Z,100748.81
2022-10-25T13:33:33.691Z,100747.31
2022-10-25T13:36:04.461Z,100755.06
2022-10-25T13:38:38.854Z,100742.59
2022-10-25T13:41:15.475Z,100746.94
2022-10-25T13:43:58.543Z,100742.56
2022-10-25T13:46:27.892Z,100741.78
2022-10-25T13:48:55.822Z,100742.66
2022-10-25T13:51:25.067Z,100747.50
2022-10-25T13:53:53.244Z,100733.03
2022-10-25T13:56:34.429Z,100735.66
2022-10-25T13:59:02.538Z,100728.31
2022-10-25T14:01:57.372Z,100723.47
2022-10-25T14:04:38.618Z,100719.56
2022-10-25T14:07:46.079Z,100710.72
2022-10-25T14:10:26.287Z,100697.28
2022-10-25T14:12:56.398Z,100709.19
2022-10-25T14:15:39.719Z,100695.25
2022-10-25T14:18:09.230Z,100701.09
2022-10-25T14:20:37.141Z,100700.16
2022-10-25T14:23:07.780Z,100693.53
2022-10-25T14:25:36.918Z,100677.97
2022-10-25T14:28:06.413Z,100683.16
2022-10-25T14:30:35.902Z,100679.00
2022-10-25T14:33:04.940Z,100670.81
2022-10-25T14:35:34.202Z,100667.03
2022-10-25T14:38:02.146Z,100665.81
2022-10-25T14:40:31.919Z,100658.09
2022-10-25T14:43:13.224Z,100653.06
2022-10-25T14:45:41.099Z,100650.97
2022-10-25T14:48:12.127Z,100643.38
2022-10-25T14:50:40.001Z,100642.03
2022-10-25T14:53:07.887Z,100638.84
2022-10-25T14:55:37.171Z,100636.53
2022-10-25T14:58:05.041Z,100631.03
2022-10-25T15:00:32.965Z,100628.34
2022-10-25T15:03:02.385Z,100624.16
2022-10-25T15:05:30.240Z,100622.59
2022-10-25T15:07:58.597Z,100621.00
2022-10-25T15:10:38.095Z,100610.81
2022-10-25T15:13:06.733Z,100605.66
2022-10-25T15:15:36.698Z,100594.78
2022-10-25T15:18:04.705Z,100589.50
2022-10-25T15:20:33.078Z,100595.38
2022-10-25T15:23:04.541Z,100588.69
2022-10-25T15:25:34.070Z,100579.59
2022-10-25T15:28:11.857Z,100559.97
2022-10-25T15:30:40.543Z,100572.72
2022-10-25T15:33:11.140Z,100563.03
2022-10-25T15:35:46.036Z,100546.88
2022-10-25T15:38:13.933Z,100540.75
2022-10-25T15:40:43.074Z,100543.31
2022-10-25T15:43:12.354Z,100531.59
2022-10-25T15:45:40.252Z,100534.88
2022-10-25T15:48:08.701Z,100525.09
2022-10-25T15:50:36.613Z,100524.84
2022-10-25T15:53:04.494Z,100512.72
2022-10-25T15:55:33.196Z,100513.25
2022-10-25T15:58:01.213Z,100511.03
2022-10-25T16:00:31.025Z,100510.44
2022-10-25T16:02:59.007Z,100507.97
2022-10-25T16:05:28.196Z,100506.53
2022-10-25T16:07:56.104Z,100503.09
2022-10-25T16:10:25.172Z,100497.38
2022-10-25T16:12:58.523Z,100494.81
2022-10-25T16:15:27.581Z,100508.50
2022-10-25T16:17:56.845Z,100491.88
2022-10-25T16:20:25.714Z,100504.00
2022-10-25T16:22:54.760Z,100496.91
2022-10-25T16:25:22.863Z,100487.22
2022-10-25T16:27:50.735Z,100492.75
2022-10-25T16:30:19.630Z,100477.69
2022-10-25T16:32:47.866Z,100469.63
2022-10-25T16:35:18.841Z,100486.50
2022-10-25T16:37:47.026Z,100476.97
2022-10-25T16:40:15.740Z,100477.97
2022-10-25T16:42:43.620Z,100480.66
2022-10-25T16:45:15.081Z,100468.16
2022-10-25T16:47:42.969Z,100467.44
2022-10-25T16:50:10.864Z,100465.47
2022-10-25T16:52:40.102Z,100464.59
2022-10-25T16:55:08.862Z,100461.44
2022-10-25T16:57:36.773Z,100448.97
2022-10-25T17:00:05.269Z,100453.63
2022-10-25T17:02:33.284Z,100436.00
2022-10-25T17:05:01.552Z,100438.41
2022-10-25T17:07:29.510Z,100433.03
2022-10-25T17:09:58.781Z,100439.41
2022-10-25T17:12:26.603Z,100431.34
2022-10-25T17:14:54.448Z,100429.75
2022-10-25T17:19:50.995Z,100434.78
2022-10-25T17:22:20.519Z,100433.78
2022-10-25T17:24:48.305Z,100424.88
2022-10-25T17:27:17.557Z,100437.22
2022-10-25T17:29:45.417Z,100429.13
2022-10-25T17:32:13.362Z,100419.25
2022-10-25T17:34:41.260Z,100416.44
2022-10-25T17:37:09.120Z,100417.41
2022-10-25T17:39:37.027Z,100417.28
2022-10-25T17:42:05.174Z,100411.16
2022-10-25T17:44:34.400Z,100408.47
2022-10-25T17:47:03.222Z,100402.38
2022-10-25T17:49:31.538Z,100378.13
2022-10-25T17:51:59.391Z,100387.44
2022-10-25T17:54:27.262Z,100389.53
2022-10-25T17:56:58.608Z,100380.59
2022-10-25T17:59:27.792Z,100378.00
2022-10-25T18:01:57.160Z,100374.47
2022-10-25T18:04:25.221Z,100373.63
2022-10-25T18:06:53.092Z,100371.06
2022-10-25T18:09:20.985Z,100355.88
2022-10-25T18:11:48.873Z,100355.88
2022-10-25T18:14:17.166Z,100352.34
2022-10-25T18:16:45.094Z,100349.78
2022-10-25T18:19:15.392Z,100349.66
2022-10-25T18:21:43.366Z,100348.81
2022-10-25T18:24:12.915Z,100330.72
2022-10-25T18:26:40.781Z,100330.72
2022-10-25T18:29:09.943Z,100330.81
2022-10-25T18:31:37.860Z,100333.28
2022-10-25T18:34:05.793Z,100335.81
2022-10-25T18:36:35.142Z,100336.81
2022-10-25T18:39:03.113Z,100324.09
2022-10-25T18:41:32.135Z,100337.41
2022-10-25T18:44:00.115Z,100333.63
2022-10-25T18:46:29.417Z,100339.84
2022-10-25T18:48:57.528Z,100339.00
2022-10-25T18:51:26.591Z,100331.69
2022-10-25T18:53:55.868Z,100333.41
2022-10-25T18:56:23.794Z,100331.69
2022-10-25T18:58:51.748Z,100323.38
2022-10-25T19:01:22.227Z,100322.50
2022-10-25T19:03:50.206Z,100320.69
2022-10-25T19:06:18.294Z,100325.22
2022-10-25T19:08:46.265Z,100309.91
2022-10-25T19:11:16.270Z,100313.06
2022-10-25T19:13:47.511Z,100303.53
2022-10-25T19:16:18.401Z,100318.34
2022-10-25T19:18:46.420Z,100313.69
2022-10-25T19:21:16.722Z,100321.03
2022-10-25T19:23:46.223Z,100325.03
2022-10-25T19:26:16.519Z,100319.56
2022-10-25T19:28:44.453Z,100312.31
2022-10-25T19:31:13.229Z,100312.31
2022-10-25T19:33:41.180Z,100324.06
2022-10-25T19:36:09.984Z,100305.22
2022-10-25T19:38:37.856Z,100307.06
2022-10-25T19:41:06.637Z,100304.38
2022-10-25T19:43:36.192Z,100308.50
2022-10-25T19:46:05.693Z,100292.50
2022-10-25T19:48:34.185Z,100296.88
2022-10-25T19:51:05.266Z,100304.94
2022-10-25T19:53:33.220Z,100305.81
2022-10-25T19:56:01.142Z,100306.53
2022-10-25T19:58:29.165Z,100300.91
2022-10-25T20:01:06.785Z,100295.38
2022-10-25T20:03:35.560Z,100279.38
2022-10-25T20:06:04.646Z,100266.78
2022-10-25T20:08:33.250Z,100254.28
2022-10-25T20:11:01.248Z,100258.81
2022-10-25T20:13:29.216Z,100248.91
2022-10-25T20:15:57.094Z,100251.59
2022-10-25T20:18:28.957Z,100245.34
2022-10-25T20:20:58.533Z,100237.19
2022-10-25T20:23:26.420Z,100238.28
2022-10-25T20:25:54.548Z,100229.97
2022-10-25T20:28:22.440Z,100232.38
2022-10-25T20:30:50.321Z,100221.59
2022-10-25T20:33:18.260Z,100218.19
2022-10-25T20:35:47.544Z,100190.72
2022-10-25T20:38:16.689Z,100201.81
2022-10-25T20:40:45.273Z,100190.16
2022-10-25T20:43:13.180Z,100193.84
2022-10-25T20:45:43.974Z,100191.03
2022-10-25T20:48:11.872Z,100183.94
2022-10-25T20:50:43.108Z,100194.69
2022-10-25T20:53:12.365Z,100189.16
2022-10-25T20:55:40.247Z,100195.56
2022-10-25T20:58:08.126Z,100196.53
2022-10-25T21:00:35.962Z,100190.31
2022-10-25T21:03:03.858Z,100192.00
2022-10-25T21:05:31.768Z,100200.34
2022-10-25T21:07:59.626Z,100200.47
2022-10-25T21:10:29.032Z,100197.19
2022-10-25T21:12:56.901Z,100187.41
2022-10-25T21:15:24.764Z,100194.63
2022-10-25T21:17:52.682Z,100191.91
2022-10-25T21:20:20.541Z,100202.69
2022-10-25T21:22:48.540Z,100193.66
2022-10-25T21:25:16.689Z,100184.72
2022-10-25T21:27:46.245Z,100196.19
2022-10-25T21:30:14.500Z,100184.59
2022-10-25T21:32:42.517Z,100192.53
2022-10-25T21:35:10.512Z,100183.59
2022-10-25T21:37:38.376Z,100174.41
2022-10-25T21:40:06.980Z,100165.63
2022-10-25T21:42:34.987Z,100165.63
2022-10-25T21:45:04.889Z,100170.28
2022-10-25T21:47:32.768Z,100164.03
2022-10-25T21:50:00.672Z,100168.31
2022-10-25T21:52:28.596Z,100162.06
2022-10-25T21:54:56.451Z,100161.09
2022-10-25T21:57:24.390Z,100155.72
2022-10-25T21:59:52.256Z,100151.44
2022-10-25T22:02:21.647Z,100145.47
2022-10-25T22:04:49.592Z,100158.66
2022-10-25T22:07:17.459Z,100155.97
2022-10-25T22:09:45.351Z,100155.81
2022-10-25T22:12:13.218Z,100147.66
2022-10-25T22:14:41.097Z,100142.38
2022-10-25T22:17:08.976Z,100141.41
2022-10-25T22:19:38.244Z,100135.16
2022-10-25T22:22:06.084Z,100134.28
2022-10-25T22:24:33.976Z,100135.16
2022-10-25T22:27:01.846Z,100144.09
2022-10-25T22:29:29.725Z,100147.75
2022-10-25T22:31:57.590Z,100145.78
2022-10-25T22:34:25.545Z,100140.28
2022-10-25T22:36:54.792Z,100132.22
2022-10-25T22:39:22.681Z,100141.25
2022-10-25T22:41:52.732Z,100137.28
2022-10-25T22:46:53.773Z,100131.25
2022-10-25T22:49:21.733Z,100128.78
2022-10-25T22:51:49.674Z,100136.88
2022-10-25T22:54:18.926Z,100139.78
2022-10-25T22:56:46.792Z,100134.53
2022-10-25T22:59:14.614Z,100133.56
2022-10-25T23:01:42.511Z,100135.50
2022-10-25T23:04:10.633Z,100134.69
2022-10-25T23:06:39.472Z,100134.69
2022-10-25T23:09:09.871Z,100143.47
2022-10-25T23:11:39.826Z,100141.63
2022-10-25T23:14:13.330Z,100145.16
2022-10-25T23:16:44.525Z,100146.06
2022-10-25T23:19:12.361Z,100151.19
2022-10-25T23:21:40.257Z,100153.72
2022-10-25T23:24:08.211Z,100164.09
2022-10-25T23:26:36.484Z,100146.13
2022-10-25T23:29:05.901Z,100157.47
2022-10-25T23:31:33.886Z,100151.69
2022-10-25T23:34:01.913Z,100156.94
2022-10-25T23:36:37.104Z,100147.91
2022-10-25T23:39:05.449Z,100154.00
2022-10-25T23:41:33.313Z,100149.47
2022-10-25T23:44:01.274Z,100155.44
2022-10-25T23:46:30.508Z,100170.47
2022-10-25T23:48:58.811Z,100173.78
2022-10-25T23:51:26.743Z,100164.44
2022-10-25T23:53:54.605Z,100167.00
2022-10-25T23:56:22.488Z,100171.25
2022-10-25T23:58:53.721Z,100158.44
